createdAt,value
2023-04-25T00:00:35.751Z,14.03
2023-04-25T00:02:37.929Z,14.00
2023-04-25T00:04:40.056Z,13.95
2023-04-25T00:06:41.969Z,13.97
2023-04-25T00:08:43.547Z,13.95
2023-04-25T00:10:45.511Z,13.94
2023-04-25T00:12:47.122Z,13.89
2023-04-25T00:14:50.148Z,13.85
2023-04-25T00:16:51.916Z,13.85
2023-04-25T00:18:53.394Z,13.89
2023-04-25T00:20:55.501Z,13.91
2023-04-25T00:22:57.116Z,13.84
2023-04-25T00:24:58.754Z,13.81
2023-04-25T00:27:00.577Z,13.77
2023-04-25T00:29:02.306Z,13.71
2023-04-25T00:31:05.407Z,13.67
2023-04-25T00:33:07.298Z,13.63
2023-04-25T00:35:10.591Z,13.65
2023-04-25T00:37:12.293Z,13.61
2023-04-25T00:39:13.874Z,13.65
2023-04-25T00:41:15.845Z,13.66
2023-04-25T00:43:17.359Z,13.62
2023-04-25T00:45:19.317Z,13.64
2023-04-25T00:47:22.493Z,13.62
2023-04-25T00:49:24.113Z,13.70
2023-04-25T00:51:26.528Z,13.81
2023-04-25T00:53:29.385Z,13.85
2023-04-25T00:55:31.291Z,13.86
2023-04-25T00:57:33.052Z,13.81
2023-04-25T00:59:35.051Z,13.73
2023-04-25T01:01:36.914Z,13.79
2023-04-25T01:03:40.889Z,13.81
2023-04-25T01:05:43.292Z,13.83
2023-04-25T01:07:45.102Z,13.88
2023-04-25T01:09:47.055Z,13.79
2023-04-25T01:11:49.394Z,13.89
2023-04-25T01:13:51.299Z,13.91
2023-04-25T01:15:53.289Z,13.85
2023-04-25T01:17:55.335Z,13.93
2023-04-25T01:19:58.421Z,13.96
2023-04-25T01:22:01.745Z,13.92
2023-04-25T01:24:03.784Z,13.96
2023-04-25T01:26:06.856Z,13.98
2023-04-25T01:28:08.883Z,13.94
2023-04-25T01:30:10.958Z,13.96
2023-04-25T01:32:13.454Z,13.93
2023-04-25T01:34:15.198Z,13.99
2023-04-25T01:36:17.203Z,14.03
2023-04-25T01:38:20.589Z,14.03
2023-04-25T01:40:23.136Z,14.06
2023-04-25T01:42:24.916Z,14.07
2023-04-25T01:44:26.667Z,14.10
2023-04-25T01:46:29.127Z,14.10
2023-04-25T01:48:30.721Z,14.06
2023-04-25T01:50:32.475Z,13.96
2023-04-25T01:52:34.149Z,13.92
2023-04-25T01:54:37.155Z,13.96
2023-04-25T01:56:39.954Z,13.95
2023-04-25T01:58:41.625Z,13.89
2023-04-25T02:00:43.489Z,13.81
2023-04-25T02:02:45.247Z,13.76
2023-04-25T02:04:47.074Z,13.66
2023-04-25T02:06:48.780Z,13.64
2023-04-25T02:08:50.426Z,13.56
2023-04-25T02:10:53.553Z,13.53
2023-04-25T02:12:55.137Z,13.47
2023-04-25T02:14:56.770Z,13.53
2023-04-25T02:16:58.554Z,13.65
2023-04-25T02:19:00.274Z,13.55
2023-04-25T02:21:01.882Z,13.44
2023-04-25T02:23:03.663Z,13.44
2023-04-25T02:25:06.253Z,13.47
2023-04-25T02:27:09.325Z,13.53
2023-04-25T02:29:11.282Z,13.52
2023-04-25T02:31:12.982Z,13.47
2023-04-25T02:33:14.559Z,13.41
2023-04-25T02:35:16.293Z,13.39
2023-04-25T02:37:17.959Z,13.44
2023-04-25T02:39:19.626Z,13.39
2023-04-25T02:41:21.198Z,13.39
2023-04-25T02:43:24.302Z,13.44
2023-04-25T02:45:25.921Z,13.38
2023-04-25T02:47:27.609Z,13.37
2023-04-25T02:49:29.223Z,13.32
2023-04-25T02:51:30.814Z,13.29
2023-04-25T02:53:32.431Z,13.30
2023-04-25T02:55:34.168Z,13.32
2023-04-25T02:57:35.753Z,13.33
2023-04-25T02:59:38.784Z,13.36
2023-04-25T03:01:40.351Z,13.37
2023-04-25T03:03:41.981Z,13.30
2023-04-25T03:05:43.820Z,13.23
2023-04-25T03:07:45.772Z,13.22
2023-04-25T03:09:47.505Z,13.23
2023-04-25T03:11:49.178Z,13.36
2023-04-25T03:13:50.958Z,13.39
2023-04-25T03:15:54.066Z,13.36
2023-04-25T03:17:55.770Z,13.31
2023-04-25T03:19:58.167Z,13.29
2023-04-25T03:21:59.822Z,13.36
2023-04-25T03:24:02.777Z,13.34
2023-04-25T03:26:04.388Z,13.32
2023-04-25T03:28:05.991Z,13.32
2023-04-25T03:30:08.696Z,13.35
2023-04-25T03:32:11.724Z,13.37
2023-04-25T03:34:13.297Z,13.35
2023-04-25T03:36:15.210Z,13.35
2023-04-25T03:38:16.929Z,13.39
2023-04-25T03:40:21.027Z,13.37
2023-04-25T03:42:23.004Z,13.41
2023-04-25T03:44:24.884Z,13.31
2023-04-25T03:46:26.744Z,13.24
2023-04-25T03:48:30.229Z,13.23
2023-04-25T03:50:31.842Z,13.25
2023-04-25T03:52:33.375Z,13.23
2023-04-25T03:54:34.999Z,13.31
2023-04-25T03:56:36.585Z,13.39
2023-04-25T03:58:38.166Z,13.41
2023-04-25T04:00:39.958Z,13.45
2023-04-25T04:02:43.954Z,13.45
2023-04-25T04:04:48.496Z,13.46
2023-04-25T04:06:50.541Z,13.30
2023-04-25T04:08:52.149Z,13.34
2023-04-25T04:10:53.903Z,13.40
2023-04-25T04:12:55.701Z,13.43
2023-04-25T04:14:57.439Z,13.39
2023-04-25T04:16:59.251Z,13.36
2023-04-25T04:19:00.924Z,13.38
2023-04-25T04:21:04.253Z,13.39
2023-04-25T04:23:06.173Z,13.40
2023-04-25T04:25:08.694Z,13.33
2023-04-25T04:27:10.385Z,13.34
2023-04-25T04:29:12.081Z,13.32
2023-04-25T04:31:14.085Z,13.37
2023-04-25T04:33:15.642Z,13.29
2023-04-25T04:35:17.381Z,13.21
2023-04-25T04:37:20.532Z,13.07
2023-04-25T04:39:22.240Z,13.12
2023-04-25T04:41:24.015Z,13.16
2023-04-25T04:43:25.598Z,13.25
2023-04-25T04:45:27.189Z,13.30
2023-04-25T04:47:28.877Z,13.31
2023-04-25T04:49:30.546Z,13.36
2023-04-25T04:51:32.191Z,13.33
2023-04-25T04:53:35.179Z,13.38
2023-04-25T04:55:37.064Z,13.40
2023-04-25T04:57:38.640Z,13.37
2023-04-25T04:59:40.224Z,13.41
2023-04-25T05:01:42.046Z,13.33
2023-04-25T05:03:43.816Z,13.38
2023-04-25T05:05:45.555Z,13.32
2023-04-25T05:07:47.162Z,13.21
2023-04-25T05:09:50.484Z,13.23
2023-04-25T05:11:52.101Z,13.16
2023-04-25T05:13:54.171Z,13.17
2023-04-25T05:15:55.771Z,13.27
2023-04-25T05:17:57.609Z,13.37
2023-04-25T05:20:00.065Z,13.39
2023-04-25T05:22:01.725Z,13.31
2023-04-25T05:24:03.523Z,13.22
2023-04-25T05:26:08.057Z,13.23
2023-04-25T05:28:09.601Z,13.31
2023-04-25T05:30:11.595Z,13.37
2023-04-25T05:32:13.318Z,13.39
2023-04-25T05:34:14.997Z,13.42
2023-04-25T05:36:16.541Z,13.43
2023-04-25T05:38:18.168Z,13.36
2023-04-25T05:40:19.709Z,13.36
2023-04-25T05:42:22.730Z,13.34
2023-04-25T05:44:24.316Z,13.30
2023-04-25T05:46:26.019Z,13.26
2023-04-25T05:48:27.683Z,13.27
2023-04-25T05:50:29.341Z,13.33
2023-04-25T05:52:30.897Z,13.29
2023-04-25T05:54:32.498Z,13.23
2023-04-25T05:56:34.062Z,13.19
2023-04-25T05:58:37.013Z,13.27
2023-04-25T06:00:38.658Z,13.27
2023-04-25T06:02:40.455Z,13.25
2023-04-25T06:04:42.289Z,13.22
2023-04-25T06:06:43.945Z,13.21
2023-04-25T06:08:45.493Z,13.23
2023-04-25T06:10:47.053Z,13.28
2023-04-25T06:12:48.720Z,13.29
2023-04-25T06:14:51.678Z,13.33
2023-04-25T06:16:53.242Z,13.32
2023-04-25T06:18:54.856Z,13.27
2023-04-25T06:20:56.521Z,13.30
2023-04-25T06:22:58.125Z,13.32
2023-04-25T06:24:59.675Z,13.35
2023-04-25T06:27:01.227Z,13.36
2023-04-25T06:29:02.939Z,13.38
2023-04-25T06:31:06.150Z,13.39
2023-04-25T06:33:07.877Z,13.40
2023-04-25T06:35:09.948Z,13.45
2023-04-25T06:37:11.556Z,13.42
2023-04-25T06:39:13.110Z,13.42
2023-04-25T06:41:14.811Z,13.40
2023-04-25T06:43:16.339Z,13.37
2023-04-25T06:45:18.038Z,13.39
2023-04-25T06:47:20.981Z,13.41
2023-04-25T06:49:22.547Z,13.35
2023-04-25T06:51:24.452Z,13.35
2023-04-25T06:53:26.123Z,13.35
2023-04-25T06:55:27.686Z,13.34
2023-04-25T06:57:29.264Z,13.37
2023-04-25T06:59:30.810Z,13.33
2023-04-25T07:01:32.390Z,13.35
2023-04-25T07:03:35.505Z,13.34
2023-04-25T07:05:37.208Z,13.32
2023-04-25T07:07:38.795Z,13.28
2023-04-25T07:09:40.330Z,13.27
2023-04-25T07:11:42.105Z,13.33
2023-04-25T07:13:43.654Z,13.35
2023-04-25T07:15:45.283Z,13.33
2023-04-25T07:17:46.890Z,13.38
2023-04-25T07:19:50.177Z,13.39
2023-04-25T07:21:54.067Z,13.38
2023-04-25T07:23:55.786Z,13.35
2023-04-25T07:25:57.339Z,13.31
2023-04-25T07:27:59.030Z,13.31
2023-04-25T07:30:00.623Z,13.32
2023-04-25T07:32:02.322Z,13.37
2023-04-25T07:34:04.001Z,13.33
2023-04-25T07:36:08.194Z,13.30
2023-04-25T07:38:09.799Z,13.34
2023-04-25T07:40:12.034Z,13.32
2023-04-25T07:42:13.897Z,13.27
2023-04-25T07:44:15.492Z,13.30
2023-04-25T07:46:17.504Z,13.31
2023-04-25T07:48:19.211Z,13.33
2023-04-25T07:50:20.752Z,13.35
2023-04-25T07:52:23.725Z,13.28
2023-04-25T07:54:25.279Z,13.29
2023-04-25T07:56:26.812Z,13.29
2023-04-25T07:58:28.371Z,13.29
2023-04-25T08:00:30.011Z,13.25
2023-04-25T08:02:31.587Z,13.35
2023-04-25T08:04:33.497Z,13.41
2023-04-25T08:06:35.583Z,13.43
2023-04-25T08:08:38.781Z,13.49
2023-04-25T08:10:42.149Z,13.51
2023-04-25T08:12:43.719Z,13.54
2023-04-25T08:14:45.382Z,13.60
2023-04-25T08:16:47.100Z,13.65
2023-04-25T08:18:49.104Z,13.64
2023-04-25T08:20:50.820Z,13.70
2023-04-25T08:22:52.477Z,13.72
2023-04-25T08:24:55.388Z,13.77
2023-04-25T08:26:56.959Z,13.81
2023-04-25T08:28:58.636Z,13.88
2023-04-25T08:31:00.613Z,13.95
2023-04-25T08:33:02.450Z,13.93
2023-04-25T08:35:04.744Z,13.92
2023-04-25T08:37:06.400Z,13.95
2023-04-25T08:39:07.958Z,13.95
2023-04-25T08:41:12.778Z,13.90
2023-04-25T08:43:15.183Z,13.98
2023-04-25T08:45:16.721Z,13.93
2023-04-25T08:47:22.540Z,14.00
2023-04-25T08:49:25.190Z,14.06
2023-04-25T08:51:28.357Z,14.16
2023-04-25T08:53:33.955Z,14.19
2023-04-25T08:55:38.344Z,14.26
2023-04-25T08:57:42.809Z,14.29
2023-04-25T08:59:46.822Z,14.34
2023-04-25T09:01:49.802Z,14.37
2023-04-25T09:03:51.721Z,14.44
2023-04-25T09:05:54.572Z,14.54
2023-04-25T09:07:56.278Z,14.55
2023-04-25T09:09:58.017Z,14.54
2023-04-25T09:11:59.905Z,14.53
2023-04-25T09:14:24.068Z,14.64
2023-04-25T09:16:25.583Z,14.70
2023-04-25T09:18:30.588Z,14.78
2023-04-25T09:20:35.220Z,14.81
2023-04-25T09:22:38.292Z,14.77
2023-04-25T09:24:41.661Z,14.78
2023-04-25T09:26:43.239Z,14.87
2023-04-25T09:28:45.110Z,14.91
2023-04-25T09:30:48.438Z,14.99
2023-04-25T09:32:49.975Z,15.00
2023-04-25T09:34:53.746Z,15.05
2023-04-25T09:36:55.600Z,15.07
2023-04-25T09:38:57.246Z,15.06
2023-04-25T09:40:59.741Z,15.13
2023-04-25T09:43:01.446Z,15.24
2023-04-25T09:45:04.208Z,15.23
2023-04-25T09:47:10.720Z,15.23
2023-04-25T09:49:15.393Z,15.11
2023-04-25T09:51:17.048Z,14.91
2023-04-25T09:53:18.629Z,15.04
2023-04-25T09:55:23.385Z,15.08
2023-04-25T09:57:25.848Z,15.03
2023-04-25T09:59:31.404Z,15.00
2023-04-25T10:01:35.268Z,15.12
2023-04-25T10:03:40.008Z,15.19
2023-04-25T10:05:43.501Z,15.24
2023-04-25T10:07:45.455Z,15.31
2023-04-25T10:09:49.658Z,15.40
2023-04-25T10:11:51.584Z,15.43
2023-04-25T10:13:53.854Z,15.40
2023-04-25T10:15:56.262Z,15.46
2023-04-25T10:17:58.221Z,15.53
2023-04-25T10:20:02.902Z,15.58
2023-04-25T10:22:09.130Z,15.56
2023-04-25T10:24:10.964Z,15.55
2023-04-25T10:26:12.528Z,15.56
2023-04-25T10:28:14.270Z,15.64
2023-04-25T10:30:16.602Z,15.63
2023-04-25T10:32:19.147Z,15.57
2023-04-25T10:34:25.264Z,15.63
2023-04-25T10:36:33.087Z,15.57
2023-04-25T10:38:34.794Z,15.56
2023-04-25T10:40:36.664Z,15.54
2023-04-25T10:42:38.273Z,15.45
2023-04-25T10:44:39.945Z,15.42
2023-04-25T10:46:41.500Z,15.40
2023-04-25T10:48:48.053Z,15.41
2023-04-25T10:50:49.705Z,15.39
2023-04-25T10:52:52.625Z,15.39
2023-04-25T10:54:55.481Z,15.43
2023-04-25T10:56:59.569Z,15.45
2023-04-25T10:59:06.161Z,15.45
2023-04-25T11:01:07.995Z,15.45
2023-04-25T11:03:09.713Z,15.40
2023-04-25T11:05:11.868Z,15.37
2023-04-25T11:07:24.972Z,15.36
2023-04-25T11:09:28.622Z,15.37
2023-04-25T11:11:30.340Z,15.32
2023-04-25T11:13:31.939Z,15.30
2023-04-25T11:15:33.597Z,15.31
2023-04-25T11:17:35.737Z,15.27
2023-04-25T11:19:37.716Z,15.30
2023-04-25T11:21:39.387Z,15.26
2023-04-25T11:23:40.994Z,15.27
2023-04-25T11:25:45.088Z,15.26
2023-04-25T11:27:53.931Z,15.20
2023-04-25T11:29:55.444Z,15.16
2023-04-25T11:31:57.937Z,15.16
2023-04-25T11:34:00.133Z,15.15
2023-04-25T11:36:01.722Z,15.18
2023-04-25T11:38:03.390Z,15.13
2023-04-25T11:40:07.260Z,15.10
2023-04-25T11:42:14.072Z,15.18
2023-04-25T11:44:16.853Z,15.17
2023-04-25T11:46:18.525Z,15.18
2023-04-25T11:48:20.937Z,15.22
2023-04-25T11:50:29.391Z,15.23
2023-04-25T11:52:41.696Z,15.36
2023-04-25T11:54:45.419Z,15.51
2023-04-25T11:56:47.603Z,15.58
2023-04-25T11:58:57.458Z,15.62
2023-04-25T12:00:59.061Z,15.66
2023-04-25T12:03:00.843Z,15.70
2023-04-25T12:05:15.848Z,15.66
2023-04-25T12:07:29.842Z,15.67
2023-04-25T12:09:33.321Z,15.65
2023-04-25T12:11:42.107Z,15.59
2023-04-25T12:13:45.079Z,15.47
2023-04-25T12:15:48.428Z,15.43
2023-04-25T12:17:51.613Z,15.36
2023-04-25T12:19:53.257Z,15.32
2023-04-25T12:21:58.543Z,15.24
2023-04-25T12:24:10.858Z,15.23
2023-04-25T12:26:12.428Z,15.29
2023-04-25T12:28:15.420Z,15.30
2023-04-25T12:30:17.232Z,15.24
2023-04-25T12:32:20.216Z,15.27
2023-04-25T12:34:22.325Z,15.28
2023-04-25T12:36:24.071Z,15.30
2023-04-25T12:38:27.103Z,15.29
2023-04-25T12:40:28.804Z,15.32
2023-04-25T12:42:30.406Z,15.29
2023-04-25T12:44:31.933Z,15.36
2023-04-25T12:46:33.549Z,15.37
2023-04-25T12:48:36.525Z,15.45
2023-04-25T12:50:38.082Z,15.50
2023-04-25T12:52:39.678Z,15.43
2023-04-25T12:54:41.420Z,15.41
2023-04-25T12:56:43.035Z,15.47
2023-04-25T12:58:44.638Z,15.49
2023-04-25T13:00:47.008Z,15.55
2023-04-25T13:02:48.875Z,15.59
2023-04-25T13:04:51.914Z,15.71
2023-04-25T13:06:53.669Z,15.76
2023-04-25T13:08:55.190Z,15.84
2023-04-25T13:10:56.735Z,15.82
2023-04-25T13:12:58.285Z,15.83
2023-04-25T13:14:59.907Z,15.91
2023-04-25T13:17:01.582Z,15.97
2023-04-25T13:19:03.443Z,15.96
2023-04-25T13:21:06.528Z,15.96
2023-04-25T13:23:08.051Z,15.92
2023-04-25T13:25:09.856Z,15.92
2023-04-25T13:27:11.354Z,15.88
2023-04-25T13:29:12.913Z,15.91
2023-04-25T13:31:14.462Z,15.95
2023-04-25T13:33:16.364Z,16.11
2023-04-25T13:35:17.979Z,16.86
2023-04-25T13:37:21.140Z,16.98
2023-04-25T13:39:22.716Z,16.94
2023-04-25T13:41:24.335Z,16.91
2023-04-25T13:43:25.969Z,16.84
2023-04-25T13:45:27.566Z,16.99
2023-04-25T13:47:29.783Z,16.90
2023-04-25T13:49:31.466Z,16.88
2023-04-25T13:51:33.121Z,16.90
2023-04-25T13:53:36.148Z,16.98
2023-04-25T13:55:37.852Z,17.10
2023-04-25T13:57:41.220Z,17.18
2023-04-25T13:59:43.071Z,17.51
2023-04-25T14:01:44.710Z,17.74
2023-04-25T14:03:46.380Z,17.51
2023-04-25T14:05:47.971Z,17.24
2023-04-25T14:07:49.595Z,17.22
2023-04-25T14:09:52.576Z,17.06
2023-04-25T14:11:54.155Z,16.99
2023-04-25T14:13:55.738Z,16.92
2023-04-25T14:15:58.412Z,16.84
2023-04-25T14:18:00.084Z,16.77
2023-04-25T14:20:01.913Z,16.70
2023-04-25T14:22:03.464Z,16.68
2023-04-25T14:24:05.302Z,16.73
2023-04-25T14:26:08.335Z,16.75
2023-04-25T14:28:10.446Z,16.68
2023-04-25T14:30:12.665Z,16.75
2023-04-25T14:32:14.203Z,16.72
2023-04-25T14:34:15.764Z,16.66
2023-04-25T14:36:17.297Z,16.61
2023-04-25T14:38:19.081Z,16.55
2023-04-25T14:40:20.776Z,16.48
2023-04-25T14:42:23.683Z,16.46
2023-04-25T14:44:25.400Z,16.59
2023-04-25T14:46:27.689Z,16.57
2023-04-25T14:48:30.290Z,16.53
2023-04-25T14:50:32.180Z,16.48
2023-04-25T14:52:33.898Z,16.42
2023-04-25T14:54:35.474Z,16.34
2023-04-25T14:56:36.992Z,16.35
2023-04-25T14:58:40.145Z,16.34
2023-04-25T15:00:41.838Z,16.27
2023-04-25T15:02:44.012Z,16.20
2023-04-25T15:04:45.980Z,16.11
2023-04-25T15:06:47.771Z,16.09
2023-04-25T15:08:49.371Z,16.05
2023-04-25T15:10:51.541Z,16.06
2023-04-25T15:12:53.123Z,16.04
2023-04-25T15:14:56.342Z,16.03
2023-04-25T15:16:58.146Z,16.02
2023-04-25T15:18:59.828Z,16.02
2023-04-25T15:21:01.418Z,16.01
2023-04-25T15:23:02.990Z,16.03
2023-04-25T15:25:05.468Z,16.03
2023-04-25T15:27:07.064Z,16.07
2023-04-25T15:29:08.625Z,16.09
2023-04-25T15:31:11.839Z,16.09
2023-04-25T15:33:13.762Z,16.08
2023-04-25T15:35:15.872Z,16.08
2023-04-25T15:37:17.626Z,16.07
2023-04-25T15:39:19.225Z,16.07
2023-04-25T15:41:20.764Z,16.04
2023-04-25T15:43:22.367Z,15.99
2023-04-25T15:45:25.629Z,16.01
2023-04-25T15:47:28.636Z,16.03
2023-04-25T15:49:30.291Z,16.02
2023-04-25T15:51:31.899Z,16.04
2023-04-25T15:53:35.244Z,16.01
2023-04-25T15:55:36.778Z,16.02
2023-04-25T15:57:38.370Z,15.97
2023-04-25T15:59:40.009Z,15.94
2023-04-25T16:01:41.643Z,15.89
2023-04-25T16:03:44.784Z,15.89
2023-04-25T16:05:46.516Z,15.83
2023-04-25T16:07:48.688Z,15.74
2023-04-25T16:09:50.271Z,15.70
2023-04-25T16:11:51.967Z,15.70
2023-04-25T16:13:53.631Z,15.71
2023-04-25T16:15:55.694Z,15.73
2023-04-25T16:17:57.325Z,15.72
2023-04-25T16:20:00.321Z,15.71
2023-04-25T16:22:01.993Z,15.72
2023-04-25T16:24:03.981Z,15.70
2023-04-25T16:26:05.574Z,15.67
2023-04-25T16:28:07.237Z,15.65
2023-04-25T16:30:10.933Z,15.63
2023-04-25T16:32:12.520Z,15.62
2023-04-25T16:34:14.429Z,15.58
2023-04-25T16:36:17.400Z,15.53
2023-04-25T16:38:19.688Z,15.50
2023-04-25T16:40:21.273Z,15.48
2023-04-25T16:42:22.929Z,15.46
2023-04-25T16:44:24.464Z,15.43
2023-04-25T16:46:26.273Z,15.41
2023-04-25T16:48:27.877Z,15.39
2023-04-25T16:50:29.489Z,15.40
2023-04-25T16:52:32.632Z,15.41
2023-04-25T16:54:34.176Z,15.36
2023-04-25T16:56:35.955Z,15.35
2023-04-25T16:58:37.547Z,15.32
2023-04-25T17:00:39.320Z,15.36
2023-04-25T17:02:41.071Z,15.31
2023-04-25T17:04:42.942Z,15.33
2023-04-25T17:06:45.960Z,15.31
2023-04-25T17:08:49.107Z,15.28
2023-04-25T17:10:51.094Z,15.25
2023-04-25T17:12:52.728Z,15.22
2023-04-25T17:14:54.643Z,15.24
2023-04-25T17:16:56.440Z,15.23
2023-04-25T17:18:58.204Z,15.24
2023-04-25T17:20:59.770Z,15.24
2023-04-25T17:23:01.623Z,15.19
2023-04-25T17:25:05.438Z,15.22
2023-04-25T17:27:07.104Z,15.22
2023-04-25T17:29:09.069Z,15.19
2023-04-25T17:31:10.978Z,15.15
2023-04-25T17:33:12.684Z,15.09
2023-04-25T17:35:14.281Z,15.06
2023-04-25T17:37:16.348Z,15.08
2023-04-25T17:39:18.777Z,15.07
2023-04-25T17:41:22.117Z,15.05
2023-04-25T17:43:24.177Z,15.00
2023-04-25T17:45:25.803Z,14.98
2023-04-25T17:47:27.490Z,14.96
2023-04-25T17:49:29.829Z,14.94
2023-04-25T17:51:31.581Z,14.97
2023-04-25T17:53:33.485Z,14.91
2023-04-25T17:55:35.031Z,14.93
2023-04-25T17:57:40.401Z,14.92
2023-04-25T17:59:42.328Z,14.89
2023-04-25T18:01:47.615Z,14.88
2023-04-25T18:03:50.564Z,14.84
2023-04-25T18:05:52.619Z,14.86
2023-04-25T18:07:54.260Z,14.85
2023-04-25T18:09:55.878Z,14.80
2023-04-25T18:11:59.561Z,14.78
2023-04-25T18:14:02.568Z,14.75
2023-04-25T18:16:04.810Z,14.70
2023-04-25T18:18:06.498Z,14.69
2023-04-25T18:20:11.380Z,14.71
2023-04-25T18:22:13.071Z,14.69
2023-04-25T18:24:15.395Z,14.68
2023-04-25T18:26:16.972Z,14.66
2023-04-25T18:28:19.405Z,14.62
2023-04-25T18:30:22.617Z,14.55
2023-04-25T18:32:24.197Z,14.56
2023-04-25T18:34:27.686Z,14.49
2023-04-25T18:36:29.983Z,14.48
2023-04-25T18:38:35.883Z,14.43
2023-04-25T18:40:47.027Z,14.40
2023-04-25T18:42:55.725Z,14.42
2023-04-25T18:44:58.493Z,14.41
2023-04-25T18:47:01.752Z,14.41
2023-04-25T18:49:03.492Z,14.41
2023-04-25T18:51:05.652Z,14.40
2023-04-25T18:53:07.348Z,14.39
2023-04-25T18:55:10.688Z,14.37
2023-04-25T18:57:12.568Z,14.34
2023-04-25T18:59:14.510Z,14.32
2023-04-25T19:01:16.416Z,14.28
2023-04-25T19:03:19.686Z,14.25
2023-04-25T19:05:22.372Z,14.21
2023-04-25T19:07:23.970Z,14.19
2023-04-25T19:09:25.875Z,14.19
2023-04-25T19:11:27.438Z,14.19
2023-04-25T19:13:29.408Z,14.19
2023-04-25T19:15:30.973Z,14.18
2023-04-25T19:17:32.812Z,14.18
2023-04-25T19:19:35.895Z,14.14
2023-04-25T19:21:38.204Z,14.13
2023-04-25T19:23:39.924Z,14.11
2023-04-25T19:25:41.806Z,14.08
2023-04-25T19:27:43.425Z,14.07
2023-04-25T19:29:45.057Z,14.03
2023-04-25T19:31:47.027Z,14.04
2023-04-25T19:33:49.151Z,14.04
2023-04-25T19:35:52.696Z,14.00
2023-04-25T19:37:54.591Z,13.98
2023-04-25T19:39:56.789Z,13.95
2023-04-25T19:41:58.364Z,13.96
2023-04-25T19:44:00.867Z,13.93
2023-04-25T19:46:02.483Z,13.85
2023-04-25T19:48:05.073Z,13.85
2023-04-25T19:50:09.106Z,13.81
2023-04-25T19:52:12.359Z,13.76
2023-04-25T19:54:14.204Z,13.73
2023-04-25T19:56:16.720Z,13.71
2023-04-25T19:58:18.874Z,13.68
2023-04-25T20:00:21.791Z,13.72
2023-04-25T20:02:26.015Z,13.69
2023-04-25T20:04:27.739Z,13.68
2023-04-25T20:06:29.347Z,13.67
2023-04-25T20:08:32.583Z,13.64
2023-04-25T20:10:34.204Z,13.60
2023-04-25T20:12:36.907Z,13.60
2023-04-25T20:14:38.616Z,13.59
2023-04-25T20:16:41.050Z,13.54
2023-04-25T20:18:42.662Z,13.48
2023-04-25T20:20:44.619Z,13.45
2023-04-25T20:22:46.272Z,13.44
2023-04-25T20:24:49.391Z,13.41
2023-04-25T20:26:51.259Z,13.36
2023-04-25T20:28:54.693Z,13.27
2023-04-25T20:30:57.295Z,13.27
2023-04-25T20:33:01.002Z,13.29
2023-04-25T20:35:03.596Z,13.37
2023-04-25T20:37:07.450Z,13.48
2023-04-25T20:39:10.334Z,13.41
2023-04-25T20:41:13.660Z,13.34
2023-04-25T20:43:15.730Z,13.31
2023-04-25T20:45:21.422Z,13.31
2023-04-25T20:47:23.187Z,13.38
2023-04-25T20:49:24.894Z,13.38
2023-04-25T20:51:26.704Z,13.34
2023-04-25T20:53:30.779Z,13.35
2023-04-25T20:55:32.577Z,13.32
2023-04-25T20:57:35.606Z,13.30
2023-04-25T20:59:37.268Z,13.25
2023-04-25T21:01:38.899Z,13.23
2023-04-25T21:03:40.862Z,13.16
2023-04-25T21:05:42.671Z,13.12
2023-04-25T21:07:44.658Z,13.11
2023-04-25T21:09:46.351Z,13.12
2023-04-25T21:11:48.258Z,13.10
2023-04-25T21:13:51.239Z,13.04
2023-04-25T21:15:54.071Z,13.04
2023-04-25T21:17:55.915Z,12.98
2023-04-25T21:19:57.500Z,13.03
2023-04-25T21:21:59.509Z,13.01
2023-04-25T21:24:03.498Z,12.97
2023-04-25T21:26:05.096Z,12.96
2023-04-25T21:28:06.760Z,12.95
2023-04-25T21:30:11.321Z,13.00
2023-04-25T21:32:13.420Z,13.09
2023-04-25T21:34:15.331Z,13.08
2023-04-25T21:36:16.894Z,13.10
2023-04-25T21:38:18.677Z,13.14
2023-04-25T21:40:20.531Z,13.10
2023-04-25T21:42:22.137Z,13.07
2023-04-25T21:44:25.863Z,12.98
2023-04-25T21:46:28.903Z,12.90
2023-04-25T21:48:30.520Z,12.83
2023-04-25T21:50:32.448Z,12.96
2023-04-25T21:52:35.801Z,13.00
2023-04-25T21:54:37.384Z,12.90
2023-04-25T21:56:38.921Z,12.94
2023-04-25T21:58:40.620Z,12.96
2023-04-25T22:00:42.251Z,13.05
2023-04-25T22:02:45.282Z,12.96
2023-04-25T22:04:47.016Z,12.80
2023-04-25T22:06:50.236Z,12.73
2023-04-25T22:08:52.087Z,12.76
2023-04-25T22:10:54.108Z,12.68
2023-04-25T22:12:55.662Z,12.62
2023-04-25T22:14:57.570Z,12.58
2023-04-25T22:16:59.295Z,12.55
2023-04-25T22:19:02.341Z,12.49
2023-04-25T22:21:04.460Z,12.42
2023-04-25T22:23:06.111Z,12.38
2023-04-25T22:25:08.965Z,12.43
2023-04-25T22:27:10.672Z,12.37
2023-04-25T22:29:12.376Z,12.40
2023-04-25T22:31:14.103Z,12.31
2023-04-25T22:33:15.691Z,12.29
2023-04-25T22:35:18.682Z,12.24
2023-04-25T22:37:20.261Z,12.27
2023-04-25T22:39:22.182Z,12.31
2023-04-25T22:41:23.807Z,12.26
2023-04-25T22:43:25.347Z,12.26
2023-04-25T22:45:27.016Z,12.23
2023-04-25T22:47:28.657Z,12.15
2023-04-25T22:49:30.285Z,12.10
2023-04-25T22:51:33.286Z,12.14
2023-04-25T22:53:35.254Z,12.19
2023-04-25T22:55:37.078Z,12.14
2023-04-25T22:57:39.652Z,12.26
2023-04-25T22:59:41.316Z,12.30
2023-04-25T23:01:43.087Z,12.29
2023-04-25T23:03:44.939Z,12.30
2023-04-25T23:05:46.882Z,12.19
2023-04-25T23:07:49.952Z,12.12
2023-04-25T23:09:51.568Z,12.02
2023-04-25T23:11:53.609Z,12.22
2023-04-25T23:13:56.422Z,12.33
2023-04-25T23:16:04.228Z,12.22
2023-04-25T23:18:07.462Z,12.14
2023-04-25T23:20:10.053Z,12.19
2023-04-25T23:22:11.668Z,12.19
2023-04-25T23:24:15.054Z,12.16
2023-04-25T23:26:16.868Z,12.13
2023-04-25T23:28:18.452Z,12.19
2023-04-25T23:30:20.221Z,12.15
2023-04-25T23:32:22.542Z,12.25
2023-04-25T23:34:24.146Z,12.26
2023-04-25T23:36:25.727Z,12.24
2023-04-25T23:38:27.837Z,12.27
2023-04-25T23:40:31.068Z,12.25
2023-04-25T23:42:32.715Z,12.21
2023-04-25T23:44:34.454Z,12.16
2023-04-25T23:46:36.337Z,12.03
2023-04-25T23:48:37.999Z,11.99
2023-04-25T23:50:39.851Z,11.96
2023-04-25T23:52:41.752Z,11.91
2023-04-25T23:54:43.416Z,11.84
2023-04-25T23:56:46.315Z,11.70
2023-04-25T23:58:47.917Z,11.63
